sensor_id;sensor_type;location;lat;lon;timestamp;temperature;humidity
43808;DHT22;29438;50.664;10.098;2023-06-26T00:01:03;16.00;84.00
43808;DHT22;29438;50.664;10.098;2023-06-26T00:03:30;16.00;84.00
43808;DHT22;29438;50.664;10.098;2023-06-26T00:05:57;16.00;83.90
43808;DHT22;29438;50.664;10.098;2023-06-26T00:08:26;15.90;83.60
43808;DHT22;29438;50.664;10.098;2023-06-26T00:10:51;15.90;84.20
43808;DHT22;29438;50.664;10.098;2023-06-26T00:13:17;15.90;84.30
43808;DHT22;29438;50.664;10.098;2023-06-26T00:15:42;15.90;84.30
43808;DHT22;29438;50.664;10.098;2023-06-26T00:18:08;15.90;84.10
43808;DHT22;29438;50.664;10.098;2023-06-26T00:20:33;15.80;84.00
43808;DHT22;29438;50.664;10.098;2023-06-26T00:23:00;15.70;84.00
43808;DHT22;29438;50.664;10.098;2023-06-26T00:25:25;15.70;84.50
43808;DHT22;29438;50.664;10.098;2023-06-26T00:27:50;15.80;84.60
43808;DHT22;29438;50.664;10.098;2023-06-26T00:30:16;15.80;84.40
43808;DHT22;29438;50.664;10.098;2023-06-26T00:32:41;15.70;84.20
43808;DHT22;29438;50.664;10.098;2023-06-26T00:35:07;15.60;84.40
43808;DHT22;29438;50.664;10.098;2023-06-26T00:37:32;15.60;84.30
43808;DHT22;29438;50.664;10.098;2023-06-26T00:39:58;15.60;84.40
43808;DHT22;29438;50.664;10.098;2023-06-26T00:42:23;15.60;84.60
43808;DHT22;29438;50.664;10.098;2023-06-26T00:44:49;15.50;84.70
43808;DHT22;29438;50.664;10.098;2023-06-26T00:47:17;15.50;85.00
43808;DHT22;29438;50.664;10.098;2023-06-26T00:49:43;15.40;84.90
43808;DHT22;29438;50.664;10.098;2023-06-26T00:52:09;15.50;84.90
43808;DHT22;29438;50.664;10.098;2023-06-26T00:54:34;15.40;84.60
43808;DHT22;29438;50.664;10.098;2023-06-26T00:57:00;15.40;84.50
43808;DHT22;29438;50.664;10.098;2023-06-26T00:59:25;15.40;84.80
43808;DHT22;29438;50.664;10.098;2023-06-26T01:01:51;15.30;84.80
43808;DHT22;29438;50.664;10.098;2023-06-26T01:04:16;15.30;85.00
43808;DHT22;29438;50.664;10.098;2023-06-26T01:06:49;15.30;84.90
43808;DHT22;29438;50.664;10.098;2023-06-26T01:09:18;15.30;85.00
43808;DHT22;29438;50.664;10.098;2023-06-26T01:11:45;15.40;85.10
43808;DHT22;29438;50.664;10.098;2023-06-26T01:14:11;15.30;85.10
43808;DHT22;29438;50.664;10.098;2023-06-26T01:16:37;15.20;84.90
43808;DHT22;29438;50.664;10.098;2023-06-26T01:19:06;15.20;84.80
43808;DHT22;29438;50.664;10.098;2023-06-26T01:21:36;15.20;85.00
43808;DHT22;29438;50.664;10.098;2023-06-26T01:24:15;15.10;85.20
43808;DHT22;29438;50.664;10.098;2023-06-26T01:26:46;15.00;85.50
43808;DHT22;29438;50.664;10.098;2023-06-26T01:29:15;14.90;85.70
43808;DHT22;29438;50.664;10.098;2023-06-26T01:31:40;14.80;85.70
43808;DHT22;29438;50.664;10.098;2023-06-26T01:34:07;14.90;86.00
43808;DHT22;29438;50.664;10.098;2023-06-26T01:36:32;14.80;86.00
43808;DHT22;29438;50.664;10.098;2023-06-26T01:38:58;14.80;86.40
43808;DHT22;29438;50.664;10.098;2023-06-26T01:41:24;14.80;86.40
43808;DHT22;29438;50.664;10.098;2023-06-26T01:44:16;14.80;86.30
43808;DHT22;29438;50.664;10.098;2023-06-26T01:47:03;14.90;86.30
43808;DHT22;29438;50.664;10.098;2023-06-26T01:50:06;14.90;86.20
43808;DHT22;29438;50.664;10.098;2023-06-26T01:52:49;14.80;86.40
43808;DHT22;29438;50.664;10.098;2023-06-26T01:55:23;14.90;86.30
43808;DHT22;29438;50.664;10.098;2023-06-26T01:57:55;14.80;86.20
43808;DHT22;29438;50.664;10.098;2023-06-26T02:00:21;14.80;86.00
43808;DHT22;29438;50.664;10.098;2023-06-26T02:02:48;14.80;85.90
43808;DHT22;29438;50.664;10.098;2023-06-26T02:05:14;14.70;85.80
43808;DHT22;29438;50.664;10.098;2023-06-26T02:07:40;14.70;85.80
43808;DHT22;29438;50.664;10.098;2023-06-26T02:10:06;14.80;86.00
43808;DHT22;29438;50.664;10.098;2023-06-26T02:12:31;14.80;85.80
43808;DHT22;29438;50.664;10.098;2023-06-26T02:14:57;14.70;85.80
43808;DHT22;29438;50.664;10.098;2023-06-26T02:17:22;14.70;86.00
43808;DHT22;29438;50.664;10.098;2023-06-26T02:19:48;14.80;86.10
43808;DHT22;29438;50.664;10.098;2023-06-26T02:22:14;14.70;86.00
43808;DHT22;29438;50.664;10.098;2023-06-26T02:24:40;14.60;86.00
43808;DHT22;29438;50.664;10.098;2023-06-26T02:27:06;14.60;86.30
43808;DHT22;29438;50.664;10.098;2023-06-26T02:29:31;14.70;86.40
43808;DHT22;29438;50.664;10.098;2023-06-26T02:31:57;14.60;86.40
43808;DHT22;29438;50.664;10.098;2023-06-26T02:34:22;14.60;86.50
43808;DHT22;29438;50.664;10.098;2023-06-26T02:36:48;14.60;86.40
43808;DHT22;29438;50.664;10.098;2023-06-26T02:39:13;14.50;86.50
43808;DHT22;29438;50.664;10.098;2023-06-26T02:41:40;14.50;86.70
43808;DHT22;29438;50.664;10.098;2023-06-26T02:44:05;14.50;86.80
43808;DHT22;29438;50.664;10.098;2023-06-26T02:46:31;14.50;87.00
43808;DHT22;29438;50.664;10.098;2023-06-26T02:48:57;14.50;86.90
43808;DHT22;29438;50.664;10.098;2023-06-26T02:51:22;14.40;86.80
43808;DHT22;29438;50.664;10.098;2023-06-26T02:53:48;14.40;87.00
43808;DHT22;29438;50.664;10.098;2023-06-26T02:56:13;14.40;86.90
43808;DHT22;29438;50.664;10.098;2023-06-26T02:58:39;14.40;86.90
43808;DHT22;29438;50.664;10.098;2023-06-26T03:01:04;14.40;86.70
43808;DHT22;29438;50.664;10.098;2023-06-26T03:03:30;14.30;86.50
43808;DHT22;29438;50.664;10.098;2023-06-26T03:05:55;14.30;86.70
43808;DHT22;29438;50.664;10.098;2023-06-26T03:08:21;14.40;86.80
43808;DHT22;29438;50.664;10.098;2023-06-26T03:10:46;14.50;86.70
43808;DHT22;29438;50.664;10.098;2023-06-26T03:13:12;14.50;86.40
43808;DHT22;29438;50.664;10.098;2023-06-26T03:15:37;14.60;86.50
43808;DHT22;29438;50.664;10.098;2023-06-26T03:18:03;14.70;86.30
43808;DHT22;29438;50.664;10.098;2023-06-26T03:20:28;14.70;86.10
43808;DHT22;29438;50.664;10.098;2023-06-26T03:22:54;14.80;85.90
43808;DHT22;29438;50.664;10.098;2023-06-26T03:25:19;14.70;85.70
43808;DHT22;29438;50.664;10.098;2023-06-26T03:27:45;14.80;85.60
43808;DHT22;29438;50.664;10.098;2023-06-26T03:30:11;14.90;85.70
43808;DHT22;29438;50.664;10.098;2023-06-26T03:32:36;14.90;85.40
43808;DHT22;29438;50.664;10.098;2023-06-26T03:35:02;14.90;85.20
43808;DHT22;29438;50.664;10.098;2023-06-26T03:37:28;14.90;85.50
43808;DHT22;29438;50.664;10.098;2023-06-26T03:39:54;15.00;85.30
43808;DHT22;29438;50.664;10.098;2023-06-26T03:42:19;15.10;85.40
43808;DHT22;29438;50.664;10.098;2023-06-26T03:44:45;15.20;85.10
43808;DHT22;29438;50.664;10.098;2023-06-26T03:47:10;15.30;85.00
43808;DHT22;29438;50.664;10.098;2023-06-26T03:49:36;15.50;84.40
43808;DHT22;29438;50.664;10.098;2023-06-26T03:52:01;15.60;84.20
43808;DHT22;29438;50.664;10.098;2023-06-26T03:54:27;15.70;84.00
43808;DHT22;29438;50.664;10.098;2023-06-26T03:56:52;15.90;83.60
43808;DHT22;29438;50.664;10.098;2023-06-26T03:59:18;16.10;83.20
43808;DHT22;29438;50.664;10.098;2023-06-26T04:01:43;16.10;82.90
43808;DHT22;29438;50.664;10.098;2023-06-26T04:04:09;16.30;82.80
43808;DHT22;29438;50.664;10.098;2023-06-26T04:06:34;16.50;82.00
43808;DHT22;29438;50.664;10.098;2023-06-26T04:09:00;16.70;81.70
43808;DHT22;29438;50.664;10.098;2023-06-26T04:11:25;17.00;80.50
43808;DHT22;29438;50.664;10.098;2023-06-26T04:13:51;17.30;79.70
43808;DHT22;29438;50.664;10.098;2023-06-26T04:16:17;17.40;79.10
43808;DHT22;29438;50.664;10.098;2023-06-26T04:18:42;17.60;78.70
43808;DHT22;29438;50.664;10.098;2023-06-26T04:21:10;18.10;77.80
43808;DHT22;29438;50.664;10.098;2023-06-26T04:23:37;18.40;76.00
43808;DHT22;29438;50.664;10.098;2023-06-26T04:26:04;18.50;75.60
43808;DHT22;29438;50.664;10.098;2023-06-26T04:28:31;18.50;75.70
43808;DHT22;29438;50.664;10.098;2023-06-26T04:30:57;18.70;75.60
43808;DHT22;29438;50.664;10.098;2023-06-26T04:33:22;20.50;72.30
43808;DHT22;29438;50.664;10.098;2023-06-26T04:35:48;23.90;61.00
43808;DHT22;29438;50.664;10.098;2023-06-26T04:38:18;27.20;50.10
43808;DHT22;29438;50.664;10.098;2023-06-26T04:40:43;29.60;44.50
43808;DHT22;29438;50.664;10.098;2023-06-26T04:43:09;31.60;39.60
43808;DHT22;29438;50.664;10.098;2023-06-26T04:45:35;32.60;37.80
43808;DHT22;29438;50.664;10.098;2023-06-26T04:48:00;33.00;36.80
43808;DHT22;29438;50.664;10.098;2023-06-26T04:50:26;33.20;35.50
43808;DHT22;29438;50.664;10.098;2023-06-26T04:52:54;34.10;34.10
43808;DHT22;29438;50.664;10.098;2023-06-26T04:55:23;34.80;33.10
43808;DHT22;29438;50.664;10.098;2023-06-26T04:57:50;34.50;33.50
43808;DHT22;29438;50.664;10.098;2023-06-26T05:00:16;34.10;33.90
43808;DHT22;29438;50.664;10.098;2023-06-26T05:02:41;34.70;34.20
43808;DHT22;29438;50.664;10.098;2023-06-26T05:05:07;35.10;33.60
43808;DHT22;29438;50.664;10.098;2023-06-26T05:07:33;35.20;32.40
43808;DHT22;29438;50.664;10.098;2023-06-26T05:09:58;35.30;32.10
43808;DHT22;29438;50.664;10.098;2023-06-26T05:12:24;36.60;30.90
43808;DHT22;29438;50.664;10.098;2023-06-26T05:14:50;37.40;29.80
43808;DHT22;29438;50.664;10.098;2023-06-26T05:17:15;38.10;29.20
43808;DHT22;29438;50.664;10.098;2023-06-26T05:19:41;37.90;28.50
43808;DHT22;29438;50.664;10.098;2023-06-26T05:22:07;37.10;30.60
43808;DHT22;29438;50.664;10.098;2023-06-26T05:24:36;36.80;30.10
43808;DHT22;29438;50.664;10.098;2023-06-26T05:27:03;36.20;30.60
43808;DHT22;29438;50.664;10.098;2023-06-26T05:29:30;37.30;29.30
43808;DHT22;29438;50.664;10.098;2023-06-26T05:31:56;38.40;28.00
43808;DHT22;29438;50.664;10.098;2023-06-26T05:34:25;37.60;28.70
43808;DHT22;29438;50.664;10.098;2023-06-26T05:36:57;37.10;29.40
43808;DHT22;29438;50.664;10.098;2023-06-26T05:39:23;38.10;28.60
43808;DHT22;29438;50.664;10.098;2023-06-26T05:41:49;38.90;28.00
43808;DHT22;29438;50.664;10.098;2023-06-26T05:44:14;38.10;28.20
43808;DHT22;29438;50.664;10.098;2023-06-26T05:46:40;37.50;29.20
43808;DHT22;29438;50.664;10.098;2023-06-26T05:49:05;38.30;28.80
43808;DHT22;29438;50.664;10.098;2023-06-26T05:51:31;39.60;27.20
43808;DHT22;29438;50.664;10.098;2023-06-26T05:53:57;40.30;25.70
43808;DHT22;29438;50.664;10.098;2023-06-26T05:56:22;40.10;26.50
43808;DHT22;29438;50.664;10.098;2023-06-26T05:58:49;39.40;27.40
43808;DHT22;29438;50.664;10.098;2023-06-26T06:01:15;40.10;27.00
43808;DHT22;29438;50.664;10.098;2023-06-26T06:03:40;41.00;25.70
43808;DHT22;29438;50.664;10.098;2023-06-26T06:06:06;39.50;27.00
43808;DHT22;29438;50.664;10.098;2023-06-26T06:08:31;39.70;27.20
43808;DHT22;29438;50.664;10.098;2023-06-26T06:10:59;38.80;27.90
43808;DHT22;29438;50.664;10.098;2023-06-26T06:13:24;38.70;28.40
43808;DHT22;29438;50.664;10.098;2023-06-26T06:15:50;38.10;29.00
43808;DHT22;29438;50.664;10.098;2023-06-26T06:18:15;38.40;29.00
43808;DHT22;29438;50.664;10.098;2023-06-26T06:20:41;37.60;30.60
43808;DHT22;29438;50.664;10.098;2023-06-26T06:23:07;38.50;28.60
43808;DHT22;29438;50.664;10.098;2023-06-26T06:25:32;38.20;29.30
43808;DHT22;29438;50.664;10.098;2023-06-26T06:27:58;37.20;30.50
43808;DHT22;29438;50.664;10.098;2023-06-26T06:30:23;37.60;30.70
43808;DHT22;29438;50.664;10.098;2023-06-26T06:32:49;36.40;31.90
43808;DHT22;29438;50.664;10.098;2023-06-26T06:35:20;37.70;30.70
43808;DHT22;29438;50.664;10.098;2023-06-26T06:37:46;38.10;29.90
43808;DHT22;29438;50.664;10.098;2023-06-26T06:40:12;37.60;30.70
43808;DHT22;29438;50.664;10.098;2023-06-26T06:42:38;38.60;29.20
43808;DHT22;29438;50.664;10.098;2023-06-26T06:45:04;37.70;30.30
43808;DHT22;29438;50.664;10.098;2023-06-26T06:47:31;37.60;30.30
43808;DHT22;29438;50.664;10.098;2023-06-26T06:49:56;37.90;30.80
43808;DHT22;29438;50.664;10.098;2023-06-26T06:52:22;38.80;30.00
43808;DHT22;29438;50.664;10.098;2023-06-26T06:54:52;38.60;29.60
43808;DHT22;29438;50.664;10.098;2023-06-26T06:57:18;37.40;31.40
43808;DHT22;29438;50.664;10.098;2023-06-26T06:59:44;37.40;31.10
43808;DHT22;29438;50.664;10.098;2023-06-26T07:02:10;37.40;30.90
43808;DHT22;29438;50.664;10.098;2023-06-26T07:04:35;36.80;32.50
43808;DHT22;29438;50.664;10.098;2023-06-26T07:07:01;38.10;30.90
43808;DHT22;29438;50.664;10.098;2023-06-26T07:09:26;38.00;30.40
43808;DHT22;29438;50.664;10.098;2023-06-26T07:11:52;37.80;31.60
43808;DHT22;29438;50.664;10.098;2023-06-26T07:14:17;38.00;30.60
43808;DHT22;29438;50.664;10.098;2023-06-26T07:16:43;37.60;31.20
43808;DHT22;29438;50.664;10.098;2023-06-26T07:19:08;36.80;32.10
43808;DHT22;29438;50.664;10.098;2023-06-26T07:21:34;36.70;33.00
43808;DHT22;29438;50.664;10.098;2023-06-26T07:23:59;36.20;32.90
43808;DHT22;29438;50.664;10.098;2023-06-26T07:26:25;36.30;32.90
43808;DHT22;29438;50.664;10.098;2023-06-26T07:28:50;36.60;33.10
43808;DHT22;29438;50.664;10.098;2023-06-26T07:31:16;36.70;32.20
43808;DHT22;29438;50.664;10.098;2023-06-26T07:33:42;36.30;32.80
43808;DHT22;29438;50.664;10.098;2023-06-26T07:36:07;36.60;32.50
43808;DHT22;29438;50.664;10.098;2023-06-26T07:38:33;37.10;31.80
43808;DHT22;29438;50.664;10.098;2023-06-26T07:40:58;37.90;30.20
43808;DHT22;29438;50.664;10.098;2023-06-26T07:43:24;39.70;29.20
43808;DHT22;29438;50.664;10.098;2023-06-26T07:45:49;40.40;28.80
43808;DHT22;29438;50.664;10.098;2023-06-26T07:48:16;40.90;25.50
43808;DHT22;29438;50.664;10.098;2023-06-26T07:50:42;40.80;25.00
43808;DHT22;29438;50.664;10.098;2023-06-26T07:53:08;39.60;24.80
43808;DHT22;29438;50.664;10.098;2023-06-26T07:55:42;39.70;25.50
43808;DHT22;29438;50.664;10.098;2023-06-26T07:58:08;39.60;25.50
43808;DHT22;29438;50.664;10.098;2023-06-26T08:00:35;38.50;25.40
43808;DHT22;29438;50.664;10.098;2023-06-26T08:03:00;37.30;26.30
43808;DHT22;29438;50.664;10.098;2023-06-26T08:05:26;38.40;25.40
43808;DHT22;29438;50.664;10.098;2023-06-26T08:07:51;37.70;26.10
43808;DHT22;29438;50.664;10.098;2023-06-26T08:10:17;37.30;26.80
43808;DHT22;29438;50.664;10.098;2023-06-26T08:12:43;38.00;26.50
43808;DHT22;29438;50.664;10.098;2023-06-26T08:15:11;39.00;24.70
43808;DHT22;29438;50.664;10.098;2023-06-26T08:17:37;37.90;24.90
43808;DHT22;29438;50.664;10.098;2023-06-26T08:20:04;37.90;25.30
43808;DHT22;29438;50.664;10.098;2023-06-26T08:22:29;36.90;26.60
43808;DHT22;29438;50.664;10.098;2023-06-26T08:24:55;37.10;25.90
43808;DHT22;29438;50.664;10.098;2023-06-26T08:27:20;38.30;25.60
43808;DHT22;29438;50.664;10.098;2023-06-26T08:29:46;38.60;25.40
43808;DHT22;29438;50.664;10.098;2023-06-26T08:32:11;38.50;24.40
43808;DHT22;29438;50.664;10.098;2023-06-26T08:34:37;37.70;25.70
43808;DHT22;29438;50.664;10.098;2023-06-26T08:37:03;38.20;25.10
43808;DHT22;29438;50.664;10.098;2023-06-26T08:39:28;37.10;26.20
43808;DHT22;29438;50.664;10.098;2023-06-26T08:41:53;36.00;26.80
43808;DHT22;29438;50.664;10.098;2023-06-26T08:44:20;36.80;25.40
43808;DHT22;29438;50.664;10.098;2023-06-26T08:46:49;36.40;27.00
43808;DHT22;29438;50.664;10.098;2023-06-26T08:49:18;36.40;26.70
43808;DHT22;29438;50.664;10.098;2023-06-26T08:51:52;36.40;26.90
43808;DHT22;29438;50.664;10.098;2023-06-26T08:54:23;36.30;27.30
43808;DHT22;29438;50.664;10.098;2023-06-26T08:56:54;36.60;26.50
43808;DHT22;29438;50.664;10.098;2023-06-26T08:59:21;36.10;27.50
43808;DHT22;29438;50.664;10.098;2023-06-26T09:01:47;36.70;27.60
43808;DHT22;29438;50.664;10.098;2023-06-26T09:04:13;36.60;27.50
43808;DHT22;29438;50.664;10.098;2023-06-26T09:06:39;37.20;27.10
43808;DHT22;29438;50.664;10.098;2023-06-26T09:09:04;36.20;28.40
43808;DHT22;29438;50.664;10.098;2023-06-26T09:11:30;36.60;27.90
43808;DHT22;29438;50.664;10.098;2023-06-26T09:13:56;35.60;28.30
43808;DHT22;29438;50.664;10.098;2023-06-26T09:16:25;35.40;28.70
43808;DHT22;29438;50.664;10.098;2023-06-26T09:18:56;36.00;28.20
43808;DHT22;29438;50.664;10.098;2023-06-26T09:21:21;35.90;28.70
43808;DHT22;29438;50.664;10.098;2023-06-26T09:23:49;35.60;30.00
43808;DHT22;29438;50.664;10.098;2023-06-26T09:26:15;36.90;28.10
43808;DHT22;29438;50.664;10.098;2023-06-26T09:28:42;36.10;30.00
43808;DHT22;29438;50.664;10.098;2023-06-26T09:31:08;34.50;30.00
43808;DHT22;29438;50.664;10.098;2023-06-26T09:33:36;35.30;32.00
43808;DHT22;29438;50.664;10.098;2023-06-26T09:36:06;36.10;28.90
43808;DHT22;29438;50.664;10.098;2023-06-26T09:38:33;35.60;29.20
43808;DHT22;29438;50.664;10.098;2023-06-26T09:40:59;36.10;28.10
43808;DHT22;29438;50.664;10.098;2023-06-26T09:43:24;35.60;30.90
43808;DHT22;29438;50.664;10.098;2023-06-26T09:45:51;35.10;31.10
43808;DHT22;29438;50.664;10.098;2023-06-26T09:48:16;35.40;29.80
43808;DHT22;29438;50.664;10.098;2023-06-26T09:50:42;35.40;30.00
43808;DHT22;29438;50.664;10.098;2023-06-26T09:53:09;35.00;30.90
43808;DHT22;29438;50.664;10.098;2023-06-26T09:55:36;35.60;29.00
43808;DHT22;29438;50.664;10.098;2023-06-26T09:58:05;35.60;29.80
43808;DHT22;29438;50.664;10.098;2023-06-26T10:00:31;35.70;28.20
43808;DHT22;29438;50.664;10.098;2023-06-26T10:03:00;35.70;30.10
43808;DHT22;29438;50.664;10.098;2023-06-26T10:05:26;34.90;30.90
43808;DHT22;29438;50.664;10.098;2023-06-26T10:07:53;35.40;30.10
43808;DHT22;29438;50.664;10.098;2023-06-26T10:10:21;35.30;29.60
43808;DHT22;29438;50.664;10.098;2023-06-26T10:12:49;35.70;29.00
43808;DHT22;29438;50.664;10.098;2023-06-26T10:15:16;35.50;30.40
43808;DHT22;29438;50.664;10.098;2023-06-26T10:17:43;36.00;29.60
43808;DHT22;29438;50.664;10.098;2023-06-26T10:20:10;36.20;30.20
43808;DHT22;29438;50.664;10.098;2023-06-26T10:22:41;36.50;27.60
43808;DHT22;29438;50.664;10.098;2023-06-26T10:25:09;36.00;29.20
43808;DHT22;29438;50.664;10.098;2023-06-26T10:27:39;36.30;28.40
43808;DHT22;29438;50.664;10.098;2023-06-26T10:30:11;36.20;26.70
43808;DHT22;29438;50.664;10.098;2023-06-26T10:32:37;35.60;28.60
43808;DHT22;29438;50.664;10.098;2023-06-26T10:35:06;35.40;30.00
43808;DHT22;29438;50.664;10.098;2023-06-26T10:37:46;35.30;29.10
43808;DHT22;29438;50.664;10.098;2023-06-26T10:40:13;35.10;28.70
43808;DHT22;29438;50.664;10.098;2023-06-26T10:42:40;35.60;28.90
43808;DHT22;29438;50.664;10.098;2023-06-26T10:45:28;36.50;29.70
43808;DHT22;29438;50.664;10.098;2023-06-26T10:47:53;36.30;28.50
43808;DHT22;29438;50.664;10.098;2023-06-26T10:50:27;36.00;29.50
43808;DHT22;29438;50.664;10.098;2023-06-26T10:56:02;33.20;30.90
43808;DHT22;29438;50.664;10.098;2023-06-26T11:01:18;34.30;31.70
43808;DHT22;29438;50.664;10.098;2023-06-26T11:03:47;34.80;30.10
43808;DHT22;29438;50.664;10.098;2023-06-26T11:06:18;34.50;31.20
43808;DHT22;29438;50.664;10.098;2023-06-26T11:08:52;33.50;31.80
43808;DHT22;29438;50.664;10.098;2023-06-26T11:11:55;33.70;32.50
43808;DHT22;29438;50.664;10.098;2023-06-26T11:14:13;33.40;33.40
43808;DHT22;29438;50.664;10.098;2023-06-26T11:16:39;34.10;33.10
43808;DHT22;29438;50.664;10.098;2023-06-26T11:19:07;34.80;32.90
43808;DHT22;29438;50.664;10.098;2023-06-26T11:21:34;34.60;31.70
43808;DHT22;29438;50.664;10.098;2023-06-26T11:24:01;34.30;32.60
43808;DHT22;29438;50.664;10.098;2023-06-26T11:26:27;34.20;32.00
43808;DHT22;29438;50.664;10.098;2023-06-26T11:28:56;33.80;33.50
43808;DHT22;29438;50.664;10.098;2023-06-26T11:31:26;33.10;33.40
43808;DHT22;29438;50.664;10.098;2023-06-26T11:33:53;32.50;32.40
43808;DHT22;29438;50.664;10.098;2023-06-26T11:36:19;31.60;35.10
43808;DHT22;29438;50.664;10.098;2023-06-26T11:38:44;31.70;36.20
43808;DHT22;29438;50.664;10.098;2023-06-26T11:41:10;32.10;35.40
43808;DHT22;29438;50.664;10.098;2023-06-26T11:43:36;31.90;35.50
43808;DHT22;29438;50.664;10.098;2023-06-26T11:46:01;31.80;37.80
43808;DHT22;29438;50.664;10.098;2023-06-26T11:48:27;32.10;37.50
43808;DHT22;29438;50.664;10.098;2023-06-26T11:50:54;31.60;39.00
43808;DHT22;29438;50.664;10.098;2023-06-26T11:53:19;32.00;38.20
43808;DHT22;29438;50.664;10.098;2023-06-26T11:55:45;31.90;38.20
43808;DHT22;29438;50.664;10.098;2023-06-26T11:58:11;31.50;38.80
43808;DHT22;29438;50.664;10.098;2023-06-26T12:00:41;30.60;40.20
43808;DHT22;29438;50.664;10.098;2023-06-26T12:03:07;31.40;40.50
43808;DHT22;29438;50.664;10.098;2023-06-26T12:05:33;31.60;38.80
43808;DHT22;29438;50.664;10.098;2023-06-26T12:07:59;31.80;38.60
43808;DHT22;29438;50.664;10.098;2023-06-26T12:10:25;32.60;37.30
43808;DHT22;29438;50.664;10.098;2023-06-26T12:12:51;32.20;39.00
43808;DHT22;29438;50.664;10.098;2023-06-26T12:15:17;32.00;37.60
43808;DHT22;29438;50.664;10.098;2023-06-26T12:17:43;31.80;37.70
43808;DHT22;29438;50.664;10.098;2023-06-26T12:20:20;31.60;38.70
43808;DHT22;29438;50.664;10.098;2023-06-26T12:22:47;31.40;39.80
43808;DHT22;29438;50.664;10.098;2023-06-26T12:25:14;31.10;39.40
43808;DHT22;29438;50.664;10.098;2023-06-26T12:27:39;31.00;39.90
43808;DHT22;29438;50.664;10.098;2023-06-26T12:30:05;30.90;41.30
43808;DHT22;29438;50.664;10.098;2023-06-26T12:32:31;30.90;42.20
43808;DHT22;29438;50.664;10.098;2023-06-26T12:34:57;31.80;42.20
43808;DHT22;29438;50.664;10.098;2023-06-26T12:37:23;32.40;39.60
43808;DHT22;29438;50.664;10.098;2023-06-26T12:39:52;32.80;39.10
43808;DHT22;29438;50.664;10.098;2023-06-26T12:42:19;31.80;39.20
43808;DHT22;29438;50.664;10.098;2023-06-26T12:44:46;31.10;40.60
43808;DHT22;29438;50.664;10.098;2023-06-26T12:47:12;30.40;41.70
43808;DHT22;29438;50.664;10.098;2023-06-26T12:49:41;30.30;43.70
43808;DHT22;29438;50.664;10.098;2023-06-26T12:52:08;30.00;44.40
43808;DHT22;29438;50.664;10.098;2023-06-26T12:54:35;29.90;43.40
43808;DHT22;29438;50.664;10.098;2023-06-26T12:57:01;29.00;45.80
43808;DHT22;29438;50.664;10.098;2023-06-26T12:59:26;28.70;46.10
43808;DHT22;29438;50.664;10.098;2023-06-26T13:01:52;27.90;47.30
43808;DHT22;29438;50.664;10.098;2023-06-26T13:04:18;27.90;48.20
43808;DHT22;29438;50.664;10.098;2023-06-26T13:06:43;27.80;48.80
43808;DHT22;29438;50.664;10.098;2023-06-26T13:09:09;27.60;49.30
43808;DHT22;29438;50.664;10.098;2023-06-26T13:11:36;27.60;49.20
43808;DHT22;29438;50.664;10.098;2023-06-26T13:14:02;27.20;50.10
43808;DHT22;29438;50.664;10.098;2023-06-26T13:16:28;27.10;50.50
43808;DHT22;29438;50.664;10.098;2023-06-26T13:18:54;27.10;50.80
43808;DHT22;29438;50.664;10.098;2023-06-26T13:21:21;27.40;51.40
43808;DHT22;29438;50.664;10.098;2023-06-26T13:23:46;27.70;49.60
43808;DHT22;29438;50.664;10.098;2023-06-26T13:26:12;28.20;49.70
43808;DHT22;29438;50.664;10.098;2023-06-26T13:28:37;27.70;48.90
43808;DHT22;29438;50.664;10.098;2023-06-26T13:31:03;27.90;49.40
43808;DHT22;29438;50.664;10.098;2023-06-26T13:33:30;27.40;49.30
43808;DHT22;29438;50.664;10.098;2023-06-26T13:35:56;27.30;50.80
43808;DHT22;29438;50.664;10.098;2023-06-26T13:38:23;27.30;49.90
43808;DHT22;29438;50.664;10.098;2023-06-26T13:40:51;27.00;50.10
43808;DHT22;29438;50.664;10.098;2023-06-26T13:43:17;26.70;50.70
43808;DHT22;29438;50.664;10.098;2023-06-26T13:45:42;27.00;50.00
43808;DHT22;29438;50.664;10.098;2023-06-26T13:48:08;27.40;49.00
43808;DHT22;29438;50.664;10.098;2023-06-26T13:50:33;27.80;48.10
43808;DHT22;29438;50.664;10.098;2023-06-26T13:52:59;27.90;47.00
43808;DHT22;29438;50.664;10.098;2023-06-26T13:55:24;27.90;48.00
43808;DHT22;29438;50.664;10.098;2023-06-26T13:57:50;27.90;47.90
43808;DHT22;29438;50.664;10.098;2023-06-26T14:00:16;27.90;49.20
43808;DHT22;29438;50.664;10.098;2023-06-26T14:02:46;27.70;48.50
43808;DHT22;29438;50.664;10.098;2023-06-26T14:05:11;27.60;48.30
43808;DHT22;29438;50.664;10.098;2023-06-26T14:07:37;28.10;48.40
43808;DHT22;29438;50.664;10.098;2023-06-26T14:10:04;28.10;47.50
43808;DHT22;29438;50.664;10.098;2023-06-26T14:12:31;27.90;47.90
43808;DHT22;29438;50.664;10.098;2023-06-26T14:14:57;27.80;48.40
43808;DHT22;29438;50.664;10.098;2023-06-26T14:17:22;28.30;48.30
43808;DHT22;29438;50.664;10.098;2023-06-26T14:19:51;28.40;46.50
43808;DHT22;29438;50.664;10.098;2023-06-26T14:22:17;27.40;45.80
43808;DHT22;29438;50.664;10.098;2023-06-26T14:24:43;26.90;47.90
43808;DHT22;29438;50.664;10.098;2023-06-26T14:27:09;27.10;47.30
43808;DHT22;29438;50.664;10.098;2023-06-26T14:29:35;27.10;47.50
43808;DHT22;29438;50.664;10.098;2023-06-26T14:32:01;27.10;47.90
43808;DHT22;29438;50.664;10.098;2023-06-26T14:34:27;27.50;46.60
43808;DHT22;29438;50.664;10.098;2023-06-26T14:36:52;27.50;46.40
43808;DHT22;29438;50.664;10.098;2023-06-26T14:39:18;27.70;46.70
43808;DHT22;29438;50.664;10.098;2023-06-26T14:41:43;27.60;46.10
43808;DHT22;29438;50.664;10.098;2023-06-26T14:44:09;27.10;46.10
43808;DHT22;29438;50.664;10.098;2023-06-26T14:46:36;26.70;47.20
43808;DHT22;29438;50.664;10.098;2023-06-26T14:49:02;26.60;47.30
43808;DHT22;29438;50.664;10.098;2023-06-26T14:51:28;26.40;47.10
43808;DHT22;29438;50.664;10.098;2023-06-26T14:53:54;26.10;47.10
43808;DHT22;29438;50.664;10.098;2023-06-26T14:56:19;25.70;47.10
43808;DHT22;29438;50.664;10.098;2023-06-26T14:58:45;25.70;46.80
43808;DHT22;29438;50.664;10.098;2023-06-26T15:01:12;25.80;46.50
43808;DHT22;29438;50.664;10.098;2023-06-26T15:03:40;26.20;45.30
43808;DHT22;29438;50.664;10.098;2023-06-26T15:06:06;26.30;43.20
43808;DHT22;29438;50.664;10.098;2023-06-26T15:08:31;27.00;43.30
43808;DHT22;29438;50.664;10.098;2023-06-26T15:10:56;27.00;40.40
43808;DHT22;29438;50.664;10.098;2023-06-26T15:13:22;27.60;40.10
43808;DHT22;29438;50.664;10.098;2023-06-26T15:15:47;27.30;38.30
43808;DHT22;29438;50.664;10.098;2023-06-26T15:18:13;26.90;39.40